Sim-Planet VA

Sim-Planet Nouvel Horizon. By: Anthony Pay
Since 2020.




 METAR ET TAF INFORMATION
METAR FOR BKPR
ADDS - METARS form results

(1834 UTC 28 January 2022)
Data provider http://aviationweather.gov/metar/data/
 
METAR text: BKPR 281830Z VRB02KT 9999 BKN070 01/M02 Q1023 NOSIG
Conditions at: BKPR (PRISHTINA , KV) observed 1830 UTC 28 January 2022
Temperature: 1.0°C (34°F)
Dewpoint: -2.0°C (28°F) [RH = 80%]
Pressure (altimeter): 30.21 inches Hg (1023.0 mb)
Winds: variable direction winds at 2 MPH (2 knots; 1.0 m/s)
Visibility: 6 or more miles (10+ km)
Ceiling: 7000 feet AGL
Clouds: broken clouds at 7000 feet AGL
Weather: no significant weather observed at this time

METAR text: BKPR 281800Z VRB02KT 9999 SCT040 BKN080 01/M02 Q1023 NOSIG
Conditions at: BKPR (PRISHTINA , KV) observed 1800 UTC 28 January 2022
Temperature: 1.0°C (34°F)
Dewpoint: -2.0°C (28°F) [RH = 80%]
Pressure (altimeter): 30.21 inches Hg (1023.0 mb)
Winds: variable direction winds at 2 MPH (2 knots; 1.0 m/s)
Visibility: 6 or more miles (10+ km)
Ceiling: 8000 feet AGL
Clouds: scattered clouds at 4000 feet AGL
broken clouds at 8000 feet AGL
Weather: no significant weather observed at this time

Forecast for: BKPR (PRISHTINA , KV)
Text: TAF BKPR 281730Z 2818/2918 34007KT 9999 SCT030 BKN070
Forecast period: 1800 UTC 28 January 2022 to 1800 UTC 29 January 2022
Forecast type: FROM: standard forecast or significant change
Winds: from the NNW (340 degrees) at 8 MPH (7 knots; 3.6 m/s)
Visibility: 6 or more miles (10+ km)
Ceiling: 7000 feet AGL
Clouds: scattered clouds at 3000 feet AGL
broken clouds at 7000 feet AGL
Weather: no significant weather forecast for this period
Text: TEMPO 2821/2910 2000 -SN BR SCT006 BKN014
Forecast period: 2100 UTC 28 January 2022 to 1000 UTC 29 January 2022
Forecast type: TEMPORARY: The following changes expected for less than half the time period
Visibility: 1.24 miles (2.00 km)
Ceiling: 1400 feet AGL
Clouds: scattered clouds at 600 feet AGL
broken clouds at 1400 feet AGL
Weather: -SN BR  (light snow, mist)

 AÉROPORT DE AÉROPORT

 INFORMATIONS DE PISTE
Piste 17 Longueur de la piste 8165 ft Largeur de la piste 148 ft
Élévation de la piste 1789 ft Seuil de la piste déplacés 0 ft Runway heading 176
Piste 35 Longueur de la piste 8165 ft Largeur de la piste 148 ft
Élévation de la piste 1786 ft Seuil de la piste déplacés 0 ft Runway heading 356

 AÉROPORT FRÉQUENCES
Type APP Nom APP Féquence 118.775 MHZ
Type GND Nom GND Féquence 118 MHZ
Type RMP Nom RAMP OPR Féquence 136.8 MHZ
Type TWR Nom TWR Féquence 120.125 MHZ

 SIDA DE NAVIGATION

Nos Partenaires